Time;durP1;ratioP1;P1;durP2;ratioP2;P2;SDS_P1;SDS_P2;PMS_P1;PMS_P2;Temp;Humidity;BMP_temperature;BMP_pressure;BME280_temperature;BME280_humidity;BME280_pressure;Samples;Min_cycle;Max_cycle;Signal;HPM_P1;HPM_P2
2022/07/02 00:00:57;;;;;;;0.00;0.00;;;20.50;52.10;;;;;;5078747;28;20423;-76
2022/07/02 00:03:37;;;;;;;0.00;0.00;;;20.70;51.60;;;;;;5095314;28;20067;-75
2022/07/02 00:06:05;;;;;;;0.00;0.00;;;20.80;51.70;;;;;;5091236;28;20470;-75
2022/07/02 00:08:31;;;;;;;0.00;0.00;;;20.80;52.50;;;;;;5080885;28;20065;-76
2022/07/02 00:10:59;;;;;;;0.00;0.00;;;20.90;51.90;;;;;;5088630;28;20055;-75
2022/07/02 00:13:27;;;;;;;0.00;0.00;;;21.00;52.00;;;;;;5101503;28;20024;-74
2022/07/02 00:15:54;;;;;;;0.00;0.00;;;21.00;51.80;;;;;;5108869;28;20047;-75
2022/07/02 00:18:20;;;;;;;0.00;0.00;;;21.20;50.90;;;;;;5112894;28;20367;-75
2022/07/02 00:20:47;;;;;;;0.10;0.10;;;21.70;50.20;;;;;;5095823;28;20024;-76
2022/07/02 00:23:13;;;;;;;0.00;0.00;;;21.50;50.50;;;;;;5077346;28;20028;-76
2022/07/02 00:25:44;;;;;;;0.00;0.00;;;21.90;50.80;;;;;;5094413;28;20020;-75
2022/07/02 00:28:16;;;;;;;0.00;0.00;;;22.80;50.30;;;;;;5091295;28;20385;-75
2022/07/02 00:30:47;;;;;;;0.15;0.15;;;23.50;48.90;;;;;;5092186;28;20024;-74
2022/07/02 00:33:14;;;;;;;0.00;0.00;;;23.70;49.10;;;;;;5112879;28;20525;-74
2022/07/02 00:35:41;;;;;;;5.55;5.10;;;23.70;49.30;;;;;;5095934;28;20062;-75
2022/07/02 00:38:08;;;;;;;0.20;0.20;;;23.90;49.40;;;;;;5114582;28;20051;-75
2022/07/02 00:40:34;;;;;;;0.30;0.30;;;24.00;48.70;;;;;;5114516;28;20028;-75
2022/07/02 00:43:01;;;;;;;2.25;2.05;;;23.90;48.30;;;;;;5110715;28;20020;-74
2022/07/02 00:45:28;;;;;;;4.30;3.83;;;24.00;46.70;;;;;;5106337;28;20022;-74
2022/07/02 00:47:58;;;;;;;7.43;3.75;;;24.00;47.60;;;;;;5110757;28;20039;-75
2022/07/02 00:50:24;;;;;;;1.38;1.27;;;24.10;46.90;;;;;;5116763;28;20393;-73
2022/07/02 00:52:51;;;;;;;1.35;0.75;;;24.20;46.40;;;;;;5106600;28;20525;-74
2022/07/02 00:55:17;;;;;;;2.75;1.55;;;24.50;46.00;;;;;;5086908;28;20036;-74
2022/07/02 00:57:46;;;;;;;0.03;0.03;;;24.70;44.90;;;;;;5103520;28;20024;-74
2022/07/02 01:00:17;;;;;;;4.47;1.70;;;24.60;45.60;;;;;;5086259;28;20021;-74
2022/07/02 01:02:44;;;;;;;2.83;2.63;;;25.00;45.10;;;;;;5079041;28;20368;-74
2022/07/02 01:05:13;;;;;;;4.75;2.28;;;25.50;44.30;;;;;;5093596;28;20090;-74
2022/07/02 01:07:45;;;;;;;8.93;7.35;;;25.20;43.70;;;;;;5113013;28;20020;-75
2022/07/02 01:10:16;;;;;;;10.93;3.63;;;25.10;44.10;;;;;;5105595;28;20363;-75
2022/07/02 01:12:46;;;;;;;2.63;1.65;;;24.60;44.90;;;;;;5075455;28;20116;-74
2022/07/02 01:15:13;;;;;;;7.03;1.27;;;24.40;45.10;;;;;;5097966;28;20101;-76
2022/07/02 01:17:40;;;;;;;1.17;0.52;;;24.60;45.60;;;;;;5101947;28;20059;-75
2022/07/02 01:20:07;;;;;;;2.05;1.73;;;24.80;44.10;;;;;;5093956;28;20021;-75
2022/07/02 01:22:38;;;;;;;2.30;1.48;;;24.60;43.90;;;;;;5075536;28;20119;-75
2022/07/02 01:25:06;;;;;;;3.28;2.35;;;24.70;43.70;;;;;;5092917;28;20024;-75
2022/07/02 01:27:32;;;;;;;8.07;1.55;;;24.60;44.00;;;;;;5093415;28;20420;-75
2022/07/02 01:29:58;;;;;;;1.08;0.65;;;24.60;44.30;;;;;;5075075;28;20035;-75
2022/07/02 01:32:24;;;;;;;0.90;0.90;;;25.00;42.20;;;;;;5076929;28;20042;-75
2022/07/02 01:34:53;;;;;;;1.60;1.50;;;25.40;42.70;;;;;;5103585;28;20504;-74
2022/07/02 01:37:21;;;;;;;1.52;1.42;;;25.60;42.00;;;;;;5115412;28;20024;-74
2022/07/02 01:39:48;;;;;;;6.22;2.15;;;25.90;41.10;;;;;;5108146;28;20012;-74
2022/07/02 01:42:14;;;;;;;3.42;3.22;;;25.80;41.10;;;;;;5113466;28;20143;-75
2022/07/02 01:44:43;;;;;;;7.78;3.53;;;25.90;41.40;;;;;;5106952;28;20020;-75
2022/07/02 01:47:10;;;;;;;10.77;5.82;;;25.50;42.20;;;;;;5075391;28;20032;-75
2022/07/02 01:49:37;;;;;;;4.25;3.85;;;25.70;41.40;;;;;;5077534;28;20023;-75
2022/07/02 01:52:05;;;;;;;0.13;0.13;;;25.70;40.90;;;;;;5101027;28;20436;-74
2022/07/02 01:54:31;;;;;;;1.45;0.55;;;26.20;40.20;;;;;;5122083;28;20027;-75
2022/07/02 01:56:58;;;;;;;2.03;1.85;;;27.20;39.80;;;;;;5104222;28;20084;-75
2022/07/02 01:59:25;;;;;;;2.75;0.85;;;27.40;38.20;;;;;;5097824;28;20068;-75
2022/07/02 02:01:51;;;;;;;3.13;1.45;;;27.60;38.60;;;;;;5076266;28;20061;-77
2022/07/02 02:04:17;;;;;;;0.00;0.00;;;27.90;37.30;;;;;;5105469;28;20023;-76
2022/07/02 02:06:43;;;;;;;0.75;0.75;;;27.70;36.60;;;;;;5094443;28;20035;-75
2022/07/02 02:09:09;;;;;;;0.00;0.00;;;29.10;35.50;;;;;;5093696;28;20482;-75
2022/07/02 02:11:36;;;;;;;1.25;1.25;;;30.30;32.30;;;;;;5108852;28;20020;-75
2022/07/02 02:14:02;;;;;;;19.98;2.90;;;31.20;31.60;;;;;;5074459;28;20475;-76
2022/07/02 02:16:30;;;;;;;0.00;0.00;;;31.50;31.80;;;;;;5092309;28;20456;-75
2022/07/02 02:18:58;;;;;;;0.10;0.10;;;31.20;31.40;;;;;;5102525;28;20378;-76
2022/07/02 02:21:26;;;;;;;0.00;0.00;;;32.10;29.40;;;;;;5112876;28;20019;-75
2022/07/02 02:23:56;;;;;;;0.00;0.00;;;32.00;28.70;;;;;;5094638;28;20027;-75
2022/07/02 02:26:23;;;;;;;0.05;0.05;;;32.30;27.10;;;;;;5112769;28;20023;-75
2022/07/02 02:28:49;;;;;;;1.77;1.58;;;32.80;26.80;;;;;;5092658;28;20066;-75
2022/07/02 02:31:15;;;;;;;0.00;0.00;;;33.20;25.70;;;;;;5097748;28;20063;-75
2022/07/02 02:33:41;;;;;;;0.00;0.00;;;33.20;24.60;;;;;;5103493;28;20107;-75
2022/07/02 02:36:07;;;;;;;0.00;0.00;;;33.70;24.80;;;;;;5111878;28;20024;-75
2022/07/02 02:38:36;;;;;;;0.00;0.00;;;33.70;24.30;;;;;;5112390;28;20020;-75
2022/07/02 02:41:07;;;;;;;0.00;0.00;;;33.30;24.40;;;;;;5112437;28;20024;-75
2022/07/02 02:43:35;;;;;;;0.85;0.85;;;33.50;24.20;;;;;;5112494;28;20024;-74
2022/07/02 02:46:02;;;;;;;0.00;0.00;;;32.60;25.30;;;;;;5113147;28;20045;-74
2022/07/02 02:48:28;;;;;;;0.00;0.00;;;33.50;24.30;;;;;;5094266;28;20024;-75
2022/07/02 02:50:55;;;;;;;0.75;0.57;;;34.20;23.60;;;;;;5094032;28;20041;-75
2022/07/02 02:53:21;;;;;;;0.00;0.00;;;34.60;24.00;;;;;;5111653;28;20019;-75
2022/07/02 02:55:47;;;;;;;0.00;0.00;;;34.80;23.40;;;;;;5073900;28;20035;-75
2022/07/02 02:58:13;;;;;;;0.00;0.00;;;33.90;23.90;;;;;;5102195;28;20352;-75
2022/07/02 03:00:40;;;;;;;0.00;0.00;;;31.70;24.80;;;;;;5094246;28;20032;-75
2022/07/02 03:03:06;;;;;;;0.25;0.25;;;31.60;25.10;;;;;;5091680;28;20019;-75
2022/07/02 03:05:32;;;;;;;0.00;0.00;;;32.60;24.50;;;;;;5092279;28;20023;-75
2022/07/02 03:07:58;;;;;;;0.00;0.00;;;32.70;24.20;;;;;;5073871;28;20032;-75
2022/07/02 03:10:24;;;;;;;0.00;0.00;;;32.90;24.40;;;;;;5073577;28;20385;-75
2022/07/02 03:12:50;;;;;;;0.05;0.05;;;31.30;25.20;;;;;;5073177;28;20028;-75
2022/07/02 03:15:16;;;;;;;0.00;0.00;;;30.80;26.00;;;;;;5090763;28;20127;-75
2022/07/02 03:17:42;;;;;;;0.00;0.00;;;31.50;26.40;;;;;;5073164;28;20055;-75
2022/07/02 03:20:09;;;;;;;0.00;0.00;;;32.50;24.80;;;;;;5091344;28;20065;-75
2022/07/02 03:22:35;;;;;;;1.42;1.38;;;31.80;25.00;;;;;;5091844;28;20427;-75
2022/07/02 03:25:01;;;;;;;1.77;1.67;;;32.10;25.10;;;;;;5091802;28;20043;-74
2022/07/02 03:27:27;;;;;;;2.30;0.85;;;31.80;24.60;;;;;;5091660;28;20462;-74
2022/07/02 03:29:53;;;;;;;0.00;0.00;;;32.60;24.30;;;;;;5091611;28;20138;-75
2022/07/02 03:32:20;;;;;;;0.00;0.00;;;32.10;25.10;;;;;;5087979;28;20036;-75
2022/07/02 03:34:46;;;;;;;0.00;0.00;;;31.70;25.20;;;;;;5109294;28;20048;-75
2022/07/02 03:37:12;;;;;;;0.00;0.00;;;32.20;25.20;;;;;;5092420;28;21910;-73
2022/07/02 03:39:38;;;;;;;0.13;0.00;;;32.80;24.50;;;;;;5093611;28;20020;-73
2022/07/02 03:42:04;;;;;;;0.20;0.10;;;32.50;24.70;;;;;;5093744;28;20028;-74
2022/07/02 03:44:30;;;;;;;0.00;0.00;;;32.50;24.40;;;;;;5094313;28;20023;-75
2022/07/02 03:46:56;;;;;;;0.20;0.20;;;31.50;25.00;;;;;;5108040;28;20023;-75
2022/07/02 03:49:22;;;;;;;0.00;0.00;;;31.80;25.10;;;;;;5097166;28;20525;-75
2022/07/02 03:51:48;;;;;;;0.00;0.00;;;31.40;25.20;;;;;;5115308;28;20096;-75
2022/07/02 03:54:14;;;;;;;0.00;0.00;;;32.50;24.90;;;;;;5094088;28;20555;-75
2022/07/02 03:56:40;;;;;;;0.10;0.08;;;33.10;24.40;;;;;;5089186;28;20021;-75
2022/07/02 03:59:06;;;;;;;1.50;1.45;;;32.80;25.00;;;;;;5094721;28;20547;-75
2022/07/02 04:01:32;;;;;;;1.55;0.73;;;32.20;25.40;;;;;;5088927;28;20043;-73
2022/07/02 04:03:58;;;;;;;0.00;0.00;;;31.20;25.80;;;;;;5113136;28;20016;-75
2022/07/02 04:06:24;;;;;;;0.08;0.08;;;30.50;26.80;;;;;;5096851;28;20038;-76
2022/07/02 04:08:50;;;;;;;0.25;0.25;;;29.70;27.20;;;;;;5110491;28;20034;-74
2022/07/02 04:11:17;;;;;;;0.00;0.00;;;29.30;27.70;;;;;;5109120;27;20136;-75
2022/07/02 04:13:43;;;;;;;0.77;0.73;;;29.60;27.20;;;;;;5111188;27;20028;-74
2022/07/02 04:16:09;;;;;;;0.28;0.28;;;29.30;27.40;;;;;;5101111;28;20492;-75
2022/07/02 04:18:35;;;;;;;0.10;0.10;;;28.00;28.70;;;;;;5101164;27;20118;-74
2022/07/02 04:21:01;;;;;;;0.00;0.00;;;27.70;30.00;;;;;;5123697;27;20020;-75
2022/07/02 04:23:27;;;;;;;0.00;0.00;;;28.20;29.80;;;;;;5077802;28;20032;-76
2022/07/02 04:25:53;;;;;;;0.00;0.00;;;28.20;28.90;;;;;;5076854;28;20058;-74
2022/07/02 04:28:19;;;;;;;0.00;0.00;;;27.90;29.30;;;;;;5099786;28;20032;-73
2022/07/02 04:30:45;;;;;;;0.00;0.00;;;27.90;29.80;;;;;;5099104;28;20093;-74
2022/07/02 04:33:11;;;;;;;0.00;0.00;;;28.30;28.90;;;;;;5094462;28;20032;-74
2022/07/02 04:35:37;;;;;;;0.00;0.00;;;28.50;28.80;;;;;;5102859;28;20027;-74
2022/07/02 04:38:04;;;;;;;0.10;0.10;;;28.70;28.40;;;;;;5100701;28;20028;-75
2022/07/02 04:40:30;;;;;;;0.00;0.00;;;28.10;27.90;;;;;;5114400;28;20420;-75
2022/07/02 04:42:56;;;;;;;0.00;0.00;;;28.00;28.00;;;;;;5089676;28;20028;-75
2022/07/02 04:45:22;;;;;;;0.00;0.00;;;28.30;27.50;;;;;;5114123;28;20034;-75
2022/07/02 04:47:48;;;;;;;0.00;0.00;;;27.90;27.20;;;;;;5114471;28;20031;-75
2022/07/02 04:50:14;;;;;;;0.43;0.43;;;27.30;28.50;;;;;;5096066;28;20478;-75
2022/07/02 04:52:40;;;;;;;2.13;1.75;;;27.50;28.70;;;;;;5107189;28;20031;-75
2022/07/02 04:55:07;;;;;;;0.10;0.10;;;27.60;28.60;;;;;;5093281;28;20417;-74
2022/07/02 04:57:33;;;;;;;0.00;0.00;;;27.50;28.10;;;;;;5103398;27;20030;-74
2022/07/02 04:59:59;;;;;;;0.00;0.00;;;27.80;27.60;;;;;;5095281;28;20023;-74
2022/07/02 05:02:25;;;;;;;0.00;0.00;;;28.10;27.20;;;;;;5115417;28;20023;-76
2022/07/02 05:04:51;;;;;;;15.32;0.85;;;28.30;28.00;;;;;;5095775;28;20024;-74
2022/07/02 05:07:17;;;;;;;0.55;0.40;;;28.20;27.50;;;;;;5100967;28;20063;-76
2022/07/02 05:09:43;;;;;;;0.22;0.10;;;28.10;27.30;;;;;;5075304;28;20051;-75
2022/07/02 05:12:09;;;;;;;0.00;0.00;;;27.80;27.00;;;;;;5075486;28;20038;-74
2022/07/02 05:14:35;;;;;;;0.00;0.00;;;27.80;27.20;;;;;;5074858;28;20079;-76
2022/07/02 05:17:01;;;;;;;1.75;1.75;;;27.80;27.40;;;;;;5075315;28;20028;-75
2022/07/02 05:19:27;;;;;;;0.00;0.00;;;28.10;28.50;;;;;;5075222;28;20020;-75
2022/07/02 05:21:53;;;;;;;0.00;0.00;;;28.50;27.10;;;;;;5075441;28;20016;-76
2022/07/02 05:24:19;;;;;;;0.00;0.00;;;28.10;27.40;;;;;;5092700;28;20055;-77
2022/07/02 05:26:45;;;;;;;0.00;0.00;;;27.70;27.90;;;;;;5093450;28;20024;-76
2022/07/02 05:29:11;;;;;;;0.00;0.00;;;27.80;27.70;;;;;;5074146;28;20132;-76
2022/07/02 05:31:37;;;;;;;0.47;0.47;;;28.00;27.60;;;;;;5093410;28;20137;-75
2022/07/02 05:34:03;;;;;;;0.35;0.28;;;27.90;27.80;;;;;;5092828;28;20050;-75
2022/07/02 05:36:30;;;;;;;0.00;0.00;;;28.00;28.00;;;;;;5092377;28;20032;-74
2022/07/02 05:38:55;;;;;;;0.00;0.00;;;28.10;28.20;;;;;;5092233;28;20107;-75
2022/07/02 05:41:22;;;;;;;0.00;0.00;;;28.30;27.70;;;;;;5092722;28;20430;-75
2022/07/02 05:43:48;;;;;;;0.00;0.00;;;28.60;27.20;;;;;;5092346;28;20021;-76
2022/07/02 05:46:14;;;;;;;0.00;0.00;;;28.60;27.90;;;;;;5093055;28;20099;-75
2022/07/02 05:48:41;;;;;;;0.00;0.00;;;28.30;29.20;;;;;;5091950;28;20027;-76
2022/07/02 05:51:07;;;;;;;0.15;0.13;;;28.50;29.80;;;;;;5092301;28;20055;-76
2022/07/02 05:53:34;;;;;;;0.00;0.00;;;28.30;29.90;;;;;;5091935;28;20059;-75
2022/07/02 05:56:00;;;;;;;1.38;1.27;;;28.00;29.70;;;;;;5092190;28;20027;-79
2022/07/02 05:58:26;;;;;;;0.17;0.17;;;27.80;29.70;;;;;;5092426;28;20021;-75
2022/07/02 06:00:52;;;;;;;0.00;0.00;;;27.90;30.00;;;;;;5092444;28;20066;-75
2022/07/02 06:03:18;;;;;;;0.10;0.10;;;28.20;29.40;;;;;;5092470;28;20127;-76
2022/07/02 06:08:28;;;;;;;0.00;0.00;;;28.20;30.50;;;;;;5092592;28;20157;-75
2022/07/02 06:10:54;;;;;;;1.85;0.40;;;28.20;30.00;;;;;;5092935;28;20114;-75
2022/07/02 06:13:20;;;;;;;1.33;0.38;;;28.30;29.40;;;;;;5099967;28;20054;-75
2022/07/02 06:15:46;;;;;;;5.57;1.02;;;27.90;28.90;;;;;;5116276;28;20402;-74
2022/07/02 06:18:14;;;;;;;0.00;0.00;;;27.80;27.90;;;;;;5124548;28;20502;-74
2022/07/02 06:20:40;;;;;;;0.05;0.05;;;27.70;28.00;;;;;;5124539;28;20030;-76
2022/07/02 06:23:06;;;;;;;0.32;0.13;;;27.70;29.20;;;;;;5094444;28;20459;-76
2022/07/02 06:25:33;;;;;;;0.75;0.30;;;27.60;29.70;;;;;;5096327;28;20402;-76
2022/07/02 06:28:00;;;;;;;0.10;0.03;;;27.70;30.10;;;;;;5091517;28;20020;-75
2022/07/02 06:30:26;;;;;;;0.10;0.05;;;27.60;29.80;;;;;;5091807;28;20062;-75
2022/07/02 06:32:52;;;;;;;0.13;0.13;;;27.80;29.00;;;;;;5072950;28;20024;-76
2022/07/02 06:35:18;;;;;;;0.22;0.22;;;28.00;28.30;;;;;;5093974;28;20020;-76
2022/07/02 06:37:44;;;;;;;0.25;0.20;;;27.60;26.50;;;;;;5127937;27;20059;-76
2022/07/02 06:40:19;;;;;;;0.10;0.10;;;27.80;27.50;;;;;;5109110;28;20027;-75
2022/07/02 06:42:45;;;;;;;0.00;0.00;;;27.70;27.10;;;;;;5110840;28;20039;-75
2022/07/02 06:45:11;;;;;;;0.00;0.00;;;27.80;28.30;;;;;;5083421;28;20035;-75
2022/07/02 06:47:42;;;;;;;0.00;0.00;;;28.20;28.20;;;;;;5086424;28;20111;-76
2022/07/02 06:50:09;;;;;;;0.00;0.00;;;28.30;27.70;;;;;;5103719;28;20024;-76
2022/07/02 06:52:35;;;;;;;0.20;0.05;;;28.60;28.30;;;;;;5091424;28;20273;-75
2022/07/02 06:55:02;;;;;;;0.05;0.05;;;28.40;28.30;;;;;;5094326;28;20051;-75
2022/07/02 06:57:28;;;;;;;0.00;0.00;;;28.60;28.40;;;;;;5102453;28;20130;-76
2022/07/02 06:59:54;;;;;;;0.00;0.00;;;28.50;28.70;;;;;;5089378;28;20106;-75
2022/07/02 07:02:21;;;;;;;0.00;0.00;;;28.30;28.20;;;;;;5100342;28;20025;-75
2022/07/02 07:04:47;;;;;;;1.40;0.77;;;28.50;28.70;;;;;;5090351;28;20035;-75
2022/07/02 07:07:13;;;;;;;0.00;0.00;;;28.60;28.90;;;;;;5092772;28;20027;-75
2022/07/02 07:09:39;;;;;;;0.00;0.00;;;28.50;29.70;;;;;;5111017;28;20066;-76
2022/07/02 07:12:06;;;;;;;0.00;0.00;;;28.90;29.50;;;;;;5110019;28;20055;-76
2022/07/02 07:14:33;;;;;;;0.00;0.00;;;28.90;28.70;;;;;;5110216;28;20104;-76
2022/07/02 07:16:59;;;;;;;0.10;0.10;;;29.00;28.80;;;;;;5109527;28;20024;-76
2022/07/02 07:19:25;;;;;;;0.13;0.13;;;28.90;27.70;;;;;;5089510;28;20030;-76
2022/07/02 07:21:51;;;;;;;0.00;0.00;;;28.70;28.20;;;;;;5114682;28;20015;-74
2022/07/02 07:24:17;;;;;;;0.00;0.00;;;28.60;27.30;;;;;;5118642;28;20032;-76
2022/07/02 07:26:43;;;;;;;0.00;0.00;;;28.90;28.60;;;;;;5115309;28;20031;-77
2022/07/02 07:29:10;;;;;;;0.00;0.00;;;29.20;28.60;;;;;;5121174;28;20492;-75
2022/07/02 07:31:36;;;;;;;0.17;0.00;;;29.20;27.80;;;;;;5121149;28;20088;-76
2022/07/02 07:34:04;;;;;;;0.15;0.05;;;29.10;27.60;;;;;;5097119;28;20031;-76
2022/07/02 07:36:31;;;;;;;0.30;0.20;;;29.20;27.50;;;;;;5097575;28;20076;-76
2022/07/02 07:38:57;;;;;;;0.00;0.00;;;29.00;28.30;;;;;;5115357;28;20024;-76
2022/07/02 07:41:24;;;;;;;0.10;0.10;;;29.00;28.20;;;;;;5115570;28;20104;-76
2022/07/02 07:43:54;;;;;;;0.43;0.20;;;29.10;27.80;;;;;;5108551;28;20044;-75
2022/07/02 07:46:21;;;;;;;0.38;0.30;;;29.30;28.10;;;;;;5094759;28;20026;-75
2022/07/02 07:48:47;;;;;;;0.00;0.00;;;29.40;27.60;;;;;;5076625;28;20024;-76
2022/07/02 07:51:14;;;;;;;0.00;0.00;;;29.10;27.40;;;;;;5077186;28;20024;-77
2022/07/02 07:53:40;;;;;;;0.00;0.00;;;29.00;28.10;;;;;;5078785;28;20028;-75
2022/07/02 07:56:06;;;;;;;0.00;0.00;;;29.10;28.20;;;;;;5095859;28;20036;-76
2022/07/02 07:58:34;;;;;;;0.00;0.00;;;29.40;28.60;;;;;;5094425;28;20036;-74
2022/07/02 08:01:00;;;;;;;0.10;0.10;;;29.70;29.20;;;;;;5076698;28;20505;-75
2022/07/02 08:03:26;;;;;;;0.10;0.00;;;29.80;28.30;;;;;;5094448;28;20485;-75
2022/07/02 08:05:55;;;;;;;0.43;0.10;;;29.90;28.30;;;;;;5076523;28;20078;-75
2022/07/02 08:08:22;;;;;;;1.13;0.60;;;30.20;28.10;;;;;;5122081;27;20035;-75
2022/07/02 08:10:49;;;;;;;0.08;0.08;;;30.00;27.70;;;;;;5098425;27;20023;-76
2022/07/02 08:13:15;;;;;;;0.35;0.28;;;29.90;27.40;;;;;;5135591;27;20477;-76
2022/07/02 08:15:42;;;;;;;0.00;0.00;;;30.00;27.60;;;;;;5134741;27;20058;-75
2022/07/02 08:18:08;;;;;;;0.00;0.00;;;29.90;27.50;;;;;;5115207;27;20114;-75
2022/07/02 08:20:34;;;;;;;0.00;0.00;;;30.20;27.60;;;;;;5075781;28;20059;-75
2022/07/02 08:23:00;;;;;;;0.00;0.00;;;30.60;27.50;;;;;;5094184;28;20020;-75
2022/07/02 08:25:27;;;;;;;0.10;0.10;;;30.90;26.60;;;;;;5093880;28;20024;-75
2022/07/02 08:27:52;;;;;;;1.02;0.65;;;30.70;27.50;;;;;;5093095;28;20024;-76
2022/07/02 08:30:19;;;;;;;0.03;0.03;;;30.60;27.90;;;;;;5093540;28;20043;-75
2022/07/02 08:32:45;;;;;;;0.00;0.00;;;30.80;28.20;;;;;;5094601;28;20477;-74
2022/07/02 08:35:11;;;;;;;1.05;0.95;;;31.10;26.20;;;;;;5086519;28;20532;-74
2022/07/02 08:37:37;;;;;;;0.43;0.43;;;31.10;26.60;;;;;;5099227;28;20474;-75
2022/07/02 08:40:03;;;;;;;0.00;0.00;;;30.70;26.70;;;;;;5075573;28;20372;-75
2022/07/02 08:42:30;;;;;;;0.90;0.10;;;29.90;26.70;;;;;;5094122;28;20055;-76
2022/07/02 08:44:59;;;;;;;0.00;0.00;;;29.80;27.40;;;;;;5113029;28;20060;-76
2022/07/02 08:47:27;;;;;;;0.00;0.00;;;30.40;27.40;;;;;;5095514;28;20030;-76
2022/07/02 08:49:55;;;;;;;0.00;0.00;;;30.40;26.90;;;;;;5092626;28;20039;-76
2022/07/02 08:52:23;;;;;;;1.10;1.10;;;30.50;27.20;;;;;;5094760;28;20053;-76
2022/07/02 08:54:51;;;;;;;0.00;0.00;;;30.70;27.70;;;;;;5113925;28;20050;-76
2022/07/02 08:57:17;;;;;;;0.00;0.00;;;31.20;26.60;;;;;;5094848;28;20076;-76
2022/07/02 08:59:44;;;;;;;0.00;0.00;;;31.20;26.40;;;;;;5095840;28;20053;-76
2022/07/02 09:02:14;;;;;;;0.20;0.20;;;31.40;26.60;;;;;;5111434;27;20034;-77
2022/07/02 09:04:46;;;;;;;0.00;0.00;;;31.40;27.20;;;;;;5108684;27;20103;-76
2022/07/02 09:07:14;;;;;;;0.52;0.28;;;30.70;27.40;;;;;;5090307;28;20019;-74
2022/07/02 09:09:42;;;;;;;2.05;1.83;;;30.40;27.00;;;;;;5115170;27;20466;-75
2022/07/02 09:12:13;;;;;;;0.00;0.00;;;30.90;26.70;;;;;;5096943;28;20036;-75
2022/07/02 09:14:41;;;;;;;0.00;0.00;;;31.20;26.60;;;;;;5095624;28;20050;-75
2022/07/02 09:17:08;;;;;;;0.00;0.00;;;31.00;26.20;;;;;;5094619;28;20019;-76
2022/07/02 09:19:35;;;;;;;0.00;0.00;;;30.90;26.80;;;;;;5115290;27;20023;-75
2022/07/02 09:22:02;;;;;;;0.00;0.00;;;31.00;26.40;;;;;;5095470;28;20077;-75
2022/07/02 09:24:33;;;;;;;0.00;0.00;;;31.40;25.30;;;;;;5114010;28;20045;-75
2022/07/02 09:27:07;;;;;;;0.88;0.80;;;31.70;26.00;;;;;;5096338;28;20020;-76
2022/07/02 09:29:43;;;;;;;0.43;0.30;;;32.00;25.80;;;;;;5117760;27;20027;-77
2022/07/02 09:32:10;;;;;;;0.00;0.00;;;32.20;25.50;;;;;;5134102;27;20461;-74
2022/07/02 09:34:45;;;;;;;0.00;0.00;;;31.80;26.30;;;;;;5115726;27;20027;-75
2022/07/02 09:37:16;;;;;;;0.47;0.10;;;31.80;26.40;;;;;;5133888;27;20473;-75
2022/07/02 09:39:43;;;;;;;0.00;0.00;;;32.20;25.60;;;;;;5134093;27;20039;-75
2022/07/02 09:42:11;;;;;;;0.65;0.40;;;31.80;25.40;;;;;;5112791;27;20046;-74
2022/07/02 09:44:46;;;;;;;1.17;0.90;;;31.40;25.80;;;;;;5083341;28;20023;-76
2022/07/02 09:47:12;;;;;;;0.43;0.30;;;31.20;25.90;;;;;;5094741;28;20023;-76
2022/07/02 09:49:51;;;;;;;0.43;0.28;;;30.90;25.90;;;;;;5074028;28;20016;-76
2022/07/02 09:52:17;;;;;;;0.00;0.00;;;30.70;26.30;;;;;;5092420;28;20020;-75
2022/07/02 09:54:45;;;;;;;0.00;0.00;;;30.90;26.40;;;;;;5091899;28;20058;-75
2022/07/02 09:57:12;;;;;;;0.00;0.00;;;31.50;25.50;;;;;;5111446;28;20027;-75
2022/07/02 09:59:40;;;;;;;0.00;0.00;;;32.10;24.90;;;;;;5107915;28;20031;-75
2022/07/02 10:02:20;;;;;;;0.00;0.00;;;32.20;24.60;;;;;;5108368;28;20156;-75
2022/07/02 10:04:49;;;;;;;0.30;0.30;;;32.00;24.80;;;;;;5093863;28;20047;-75
2022/07/02 10:07:15;;;;;;;0.00;0.00;;;31.70;25.40;;;;;;5094736;28;20028;-75
2022/07/02 10:09:42;;;;;;;0.00;0.00;;;31.20;25.40;;;;;;5112512;28;20020;-76
2022/07/02 10:12:09;;;;;;;0.32;0.32;;;31.10;25.70;;;;;;5111777;28;20088;-75
2022/07/02 10:14:36;;;;;;;0.00;0.00;;;31.20;26.10;;;;;;5113322;28;20028;-76
2022/07/02 10:17:03;;;;;;;0.00;0.00;;;31.00;26.40;;;;;;5103630;28;20031;-76
2022/07/02 10:19:31;;;;;;;0.00;0.00;;;31.30;26.00;;;;;;5073035;28;20111;-76
2022/07/02 10:21:59;;;;;;;0.00;0.00;;;31.50;26.00;;;;;;5094908;28;20447;-75
2022/07/02 10:24:26;;;;;;;0.10;0.10;;;31.60;25.90;;;;;;5094230;28;20379;-75
2022/07/02 10:26:56;;;;;;;0.00;0.00;;;31.50;25.90;;;;;;5099981;28;20024;-75
2022/07/02 10:29:22;;;;;;;1.38;0.98;;;31.70;27.10;;;;;;5103231;28;20036;-75
2022/07/02 10:31:59;;;;;;;0.00;0.00;;;31.00;25.90;;;;;;5108242;28;20030;-75
2022/07/02 10:35:02;;;;;;;0.00;0.00;;;30.70;26.70;;;;;;5108762;27;20063;-75
2022/07/02 10:37:28;;;;;;;0.00;0.00;;;30.70;26.30;;;;;;5089403;28;20184;-75
2022/07/02 10:40:01;;;;;;;0.00;0.00;;;30.40;26.50;;;;;;5092722;28;20035;-77
2022/07/02 10:42:45;;;;;;;0.00;0.00;;;30.30;26.30;;;;;;5077444;28;20032;-75
2022/07/02 10:45:29;;;;;;;0.63;0.30;;;30.60;26.40;;;;;;5092946;28;20108;-76
2022/07/02 10:48:01;;;;;;;1.27;1.17;;;30.60;26.30;;;;;;5074232;28;20479;-75
2022/07/02 10:50:45;;;;;;;0.00;0.00;;;30.30;27.00;;;;;;5092847;28;20554;-75
2022/07/02 10:53:13;;;;;;;0.03;0.00;;;30.30;26.40;;;;;;5074307;28;20050;-77
2022/07/02 10:55:45;;;;;;;0.00;0.00;;;30.40;26.40;;;;;;5093058;28;20107;-77
2022/07/02 10:58:25;;;;;;;0.00;0.00;;;30.50;27.00;;;;;;5094968;28;20024;-76
2022/07/02 11:00:52;;;;;;;0.00;0.00;;;30.30;26.50;;;;;;5078270;28;20047;-76
2022/07/02 11:03:23;;;;;;;0.00;0.00;;;30.30;26.50;;;;;;5082842;28;20081;-76
2022/07/02 11:05:52;;;;;;;0.00;0.00;;;30.40;26.60;;;;;;5097419;28;20020;-76
2022/07/02 11:08:48;;;;;;;0.17;0.05;;;30.60;26.30;;;;;;5096796;28;20232;-76
2022/07/02 11:11:19;;;;;;;0.00;0.00;;;30.90;26.00;;;;;;5112780;28;20421;-75
2022/07/02 11:14:01;;;;;;;0.00;0.00;;;30.60;25.40;;;;;;5096835;28;20421;-75
2022/07/02 11:16:37;;;;;;;0.00;0.00;;;30.10;25.50;;;;;;5115000;28;20046;-76
2022/07/02 11:19:16;;;;;;;0.00;0.00;;;30.20;25.90;;;;;;5096743;28;20026;-75
2022/07/02 11:21:42;;;;;;;0.65;0.65;;;30.30;26.10;;;;;;5114475;28;20038;-76
2022/07/02 11:24:10;;;;;;;0.00;0.00;;;30.20;26.30;;;;;;5114298;28;20020;-76
2022/07/02 11:26:41;;;;;;;0.35;0.28;;;30.20;26.20;;;;;;5096918;28;20031;-76
2022/07/02 11:29:08;;;;;;;0.10;0.10;;;30.30;25.90;;;;;;5096173;28;20088;-76
2022/07/02 11:31:40;;;;;;;0.00;0.00;;;30.20;25.20;;;;;;5114373;28;20031;-76
2022/07/02 11:34:06;;;;;;;0.00;0.00;;;30.40;26.00;;;;;;5096314;28;20040;-76
2022/07/02 11:36:32;;;;;;;0.35;0.30;;;30.40;25.50;;;;;;5114591;28;20028;-76
2022/07/02 11:38:58;;;;;;;6.10;5.47;;;30.50;25.20;;;;;;5109232;28;20469;-76
2022/07/02 11:41:33;;;;;;;0.00;0.00;;;30.30;25.30;;;;;;5109170;28;20097;-76
2022/07/02 11:44:00;;;;;;;0.10;0.00;;;30.20;25.50;;;;;;5088045;28;20374;-76
2022/07/02 11:46:29;;;;;;;0.17;0.17;;;30.10;25.90;;;;;;5113507;28;20027;-76
2022/07/02 11:48:57;;;;;;;0.00;0.00;;;30.10;25.60;;;;;;5110137;28;20043;-76
2022/07/02 11:51:24;;;;;;;0.00;0.00;;;30.10;25.30;;;;;;5115362;28;20075;-75
2022/07/02 11:54:02;;;;;;;0.20;0.10;;;30.30;25.90;;;;;;5117268;27;20075;-74
2022/07/02 11:56:30;;;;;;;0.10;0.10;;;30.20;25.60;;;;;;5132099;28;20033;-75
2022/07/02 11:58:56;;;;;;;3.97;0.28;;;30.10;25.00;;;;;;5090514;28;20027;-76
2022/07/02 12:01:28;;;;;;;0.70;0.70;;;30.10;25.40;;;;;;5109491;28;20068;-74
2022/07/02 12:03:56;;;;;;;0.00;0.00;;;30.00;26.10;;;;;;5124623;28;20406;-74
2022/07/02 12:06:25;;;;;;;0.05;0.00;;;30.20;25.30;;;;;;5094153;28;20448;-75
2022/07/02 12:08:53;;;;;;;0.00;0.00;;;30.20;25.50;;;;;;5078171;28;20043;-76
2022/07/02 12:11:21;;;;;;;0.00;0.00;;;30.20;24.80;;;;;;5110196;28;20062;-75
2022/07/02 12:13:48;;;;;;;0.70;0.70;;;30.40;24.50;;;;;;5097195;28;20024;-77
2022/07/02 12:16:19;;;;;;;0.00;0.00;;;30.40;25.10;;;;;;5094773;28;20051;-76
2022/07/02 12:19:00;;;;;;;0.00;0.00;;;30.40;24.40;;;;;;5094412;28;20088;-77
2022/07/02 12:21:38;;;;;;;0.30;0.30;;;30.10;24.00;;;;;;5087012;28;20119;-77
2022/07/02 12:24:24;;;;;;;0.00;0.00;;;30.10;24.90;;;;;;5099465;28;20099;-76
2022/07/02 12:27:09;;;;;;;0.00;0.00;;;30.30;25.80;;;;;;5089646;28;20223;-76
2022/07/02 12:29:54;;;;;;;0.00;0.00;;;29.90;25.30;;;;;;5114420;28;20024;-76
2022/07/02 12:32:21;;;;;;;0.00;0.00;;;29.90;25.30;;;;;;5095182;28;20177;-76
2022/07/02 12:34:49;;;;;;;0.10;0.10;;;29.90;25.00;;;;;;5114620;28;20059;-75
2022/07/02 12:37:32;;;;;;;0.40;0.40;;;29.90;25.20;;;;;;5115073;28;20027;-76
2022/07/02 12:40:08;;;;;;;0.00;0.00;;;30.00;25.10;;;;;;5123395;27;20019;-77
2022/07/02 12:42:47;;;;;;;0.00;0.00;;;30.10;25.20;;;;;;5134917;27;20022;-76
2022/07/02 12:45:26;;;;;;;0.00;0.00;;;30.30;25.80;;;;;;5116004;27;20020;-76
2022/07/02 12:47:58;;;;;;;0.30;0.28;;;30.10;24.90;;;;;;5093476;28;20028;-77
2022/07/02 12:50:26;;;;;;;0.00;0.00;;;30.00;25.30;;;;;;5110783;28;20439;-78
2022/07/02 12:52:54;;;;;;;0.00;0.00;;;29.90;25.40;;;;;;5113247;28;20015;-74